Meteo Giornale » Osservazioni meteo Russia » Syktyvkar
ore: 00:30 - Osservazioni Meteo Syktyvkar
Lat. 61° 43' N Lon. 50° 50' E Alt. 119 metri s.l.m.
2 °C
Sereno
Temp. 24 Ore
2 °C
14 °C
Nord
7.2 Km/h
Dew point 2 °C
Umidità 100 %
Visibilità 10 Km
Il sole sorge alle ore 04:26
Il sole tramonta alle ore 18:46
| Data e Ora | Cielo e Fenomeni | T °C | DP °C | Um. % | Pres. hPa | Vis. km | Vento km/h | |
|---|---|---|---|---|---|---|---|---|
| Oggi h: 00:30 | Sereno | 2 | 2 | 100 | 1019 | 10 | N 7.2 | |
| Oggi h: 00:00 | Sereno | 3 | 3 | 100 | 1019 | 10 | N 3.6 | |
| Ieri h: 23:30 | Sereno | 5 | 5 | 100 | 1019 | 10 | N 3.6 | |
| Ieri h: 23:00 | Foschia | 5 | 5 | 100 | 1019 | 4 | N 3.6 | |
| Ieri h: 22:30 | Sereno | 4 | 4 | 100 | 1019 | 6 | N 0 | |
| Ieri h: 22:00 | Foschia | 5 | 5 | 100 | 1019 | 4 | N 0 | |
| Ieri h: 21:30 | Sereno | 5 | 5 | 100 | 1018 | 10 | N 3.6 | |
| Ieri h: 21:00 | Sereno | 5 | 5 | 100 | 1019 | 10 | N 3.6 | |
| Ieri h: 20:30 | Sereno | 7 | 6 | 93 | 1018 | 10 | N 0 | |
| Ieri h: 20:00 | Sereno | 6 | 5 | 93 | 1018 | 10 | N 0 | |
| Ieri h: 19:30 | Sereno | 7 | 6 | 93 | 1018 | 10 | N 3.6 | |
| Ieri h: 19:00 | Sereno | 8 | 6 | 87 | 1018 | 10 | N 3.6 | |
| Ieri h: 18:30 | Sereno | 11 | 6 | 71 | 1018 | 10 | N 3.6 | |
| Ieri h: 18:00 | Sereno | 11 | 6 | 71 | 1018 | 10 | N 7.2 | |
| Ieri h: 17:30 | Sereno | 13 | 6 | 62 | 1018 | 10 | N 3.6 | |
| Ieri h: 17:00 | Sereno | 13 | 6 | 62 | 1018 | 10 | N 7.2 | |
| Ieri h: 16:30 | Sereno | 14 | 5 | 54 | 1018 | 10 | N 3.6 | |
| Ieri h: 16:00 | Sereno | 14 | 5 | 54 | 1018 | 10 | N 7.2 | |
| Ieri h: 15:30 | Sereno | 14 | 5 | 54 | 1018 | 10 | N 7.2 | |
| Ieri h: 15:00 | Sereno | 14 | 5 | 54 | 1018 | 10 | N 3.6 | |
| Ieri h: 14:30 | Sereno | 13 | 4 | 54 | 1019 | 10 | N 3.6 | |
| Ieri h: 14:00 | Poco Nuvoloso | 13 | 4 | 54 | 1019 | 10 | N 3.6 | |
| Ieri h: 13:30 | Poco Nuvoloso | 13 | 3 | 50 | 1019 | 10 | N 7.2 | |
| Ieri h: 13:00 | Poco Nuvoloso | 13 | 5 | 58 | 1019 | 10 | N 3.6 | |
| Ieri h: 12:30 | Poco Nuvoloso | 12 | 4 | 57 | 1019 | 10 | N 7.2 | |
| Ieri h: 12:00 | Poco Nuvoloso | 12 | 3 | 54 | 1019 | 10 | N 7.2 | |
| Ieri h: 11:30 | Poco Nuvoloso | 11 | 4 | 61 | 1019 | 10 | N 7.2 | |
| Ieri h: 11:00 | Poco Nuvoloso | 11 | 4 | 61 | 1019 | 10 | N 7.2 | |
| Ieri h: 10:30 | Poco Nuvoloso | 10 | 3 | 61 | 1020 | 10 | N 7.2 | |
| Ieri h: 10:00 | Nuvoloso | 10 | 3 | 61 | 1020 | 10 | N/NE 10.8 | |
| Ieri h: 09:30 | Nuvoloso | 10 | 4 | 66 | 1020 | 9 | N 7.2 | |
| Ieri h: 09:00 | Nuvoloso | 9 | 3 | 66 | 1020 | 10 | N 7.2 | |
| Ieri h: 08:30 | Nuvoloso | 9 | 3 | 66 | 1020 | 10 | N 7.2 | |
| Ieri h: 08:00 | Molto Nuvoloso | 8 | 4 | 75 | 1020 | 10 | N 3.6 | |
| Ieri h: 07:30 | Molto Nuvoloso | 8 | 4 | 75 | 1021 | 10 | N 7.2 | |
| Ieri h: 07:00 | Molto Nuvoloso | 7 | 4 | 81 | 1021 | 10 | N 3.6 | |
| Ieri h: 06:30 | Coperto | 7 | 4 | 81 | 1021 | 10 | N 0 | |
| Ieri h: 06:00 | Coperto | 6 | 5 | 93 | 1021 | 10 | N 3.6 | |
| Ieri h: 05:30 | Coperto | 6 | 5 | 93 | 1021 | 10 | N 0 | |
| Ieri h: 05:00 | Coperto | 6 | 4 | 86 | 1021 | 10 | N 3.6 | |
| Ieri h: 04:30 | Coperto | 6 | 4 | 86 | 1021 | 10 | N 3.6 | |
| Ieri h: 04:00 | Coperto | 6 | 5 | 93 | 1021 | 10 | N 3.6 | |
| Ieri h: 03:30 | Coperto | 5 | 5 | 100 | 1021 | 10 | N 3.6 | |
| Ieri h: 03:00 | Coperto | 4 | 4 | 100 | 1021 | 10 | N 3.6 | |
| Ieri h: 02:30 | Coperto | 4 | 4 | 100 | 1021 | 10 | N 0 | |
| Ieri h: 02:00 | Coperto | 3 | 3 | 100 | 1021 | 10 | N 0 | |
| Ieri h: 01:30 | Coperto | 5 | 4 | 93 | 1021 | 10 | N 3.6 | |
| Ieri h: 01:00 | Coperto | 7 | 5 | 87 | 1021 | 10 | N 3.6 | |



